sensor_id;sensor_type;location;lat;lon;timestamp;temperature;humidity
68746;SHT31;55731;45.456;11.064;2022-10-28T00:01:18;17.62;61.38
68746;SHT31;55731;45.456;11.064;2022-10-28T00:03:52;17.59;61.33
68746;SHT31;55731;45.456;11.064;2022-10-28T00:06:28;17.57;61.31
68746;SHT31;55731;45.456;11.064;2022-10-28T00:09:04;17.54;61.22
68746;SHT31;55731;45.456;11.064;2022-10-28T00:11:39;17.52;60.93
68746;SHT31;55731;45.456;11.064;2022-10-28T00:14:12;17.47;60.96
68746;SHT31;55731;45.456;11.064;2022-10-28T00:16:45;17.44;61.01
68746;SHT31;55731;45.456;11.064;2022-10-28T00:19:19;17.43;61.11
68746;SHT31;55731;45.456;11.064;2022-10-28T00:21:53;17.41;61.19
68746;SHT31;55731;45.456;11.064;2022-10-28T00:24:26;17.40;61.18
68746;SHT31;55731;45.456;11.064;2022-10-28T00:26:59;17.38;61.07
68746;SHT31;55731;45.456;11.064;2022-10-28T00:29:32;17.39;60.94
68746;SHT31;55731;45.456;11.064;2022-10-28T00:32:05;17.40;60.92
68746;SHT31;55731;45.456;11.064;2022-10-28T00:34:38;17.40;60.94
68746;SHT31;55731;45.456;11.064;2022-10-28T00:37:12;17.40;60.90
68746;SHT31;55731;45.456;11.064;2022-10-28T00:39:45;17.41;60.87
68746;SHT31;55731;45.456;11.064;2022-10-28T00:42:19;17.42;60.73
68746;SHT31;55731;45.456;11.064;2022-10-28T00:44:56;17.40;60.52
68746;SHT31;55731;45.456;11.064;2022-10-28T00:50:42;17.38;60.60
68746;SHT31;55731;45.456;11.064;2022-10-28T00:53:19;17.33;61.21
68746;SHT31;55731;45.456;11.064;2022-10-28T00:55:57;17.28;63.00
68746;SHT31;55731;45.456;11.064;2022-10-28T00:58:32;17.19;65.64
68746;SHT31;55731;45.456;11.064;2022-10-28T01:01:06;17.08;66.95
68746;SHT31;55731;45.456;11.064;2022-10-28T01:03:39;17.02;67.48
68746;SHT31;55731;45.456;11.064;2022-10-28T01:06:11;16.98;67.03
68746;SHT31;55731;45.456;11.064;2022-10-28T01:08:46;17.00;65.29
68746;SHT31;55731;45.456;11.064;2022-10-28T01:11:30;17.05;63.84
68746;SHT31;55731;45.456;11.064;2022-10-28T01:14:29;17.11;62.82
68746;SHT31;55731;45.456;11.064;2022-10-28T01:20:28;17.20;61.60
68746;SHT31;55731;45.456;11.064;2022-10-28T01:23:43;17.24;61.22
68746;SHT31;55731;45.456;11.064;2022-10-28T01:26:40;17.25;61.20
68746;SHT31;55731;45.456;11.064;2022-10-28T01:32:50;17.29;60.92
68746;SHT31;55731;45.456;11.064;2022-10-28T01:35:33;17.30;60.76
68746;SHT31;55731;45.456;11.064;2022-10-28T01:38:21;17.28;60.67
68746;SHT31;55731;45.456;11.064;2022-10-28T01:41:05;17.27;60.66
68746;SHT31;55731;45.456;11.064;2022-10-28T01:43:47;17.27;60.80
68746;SHT31;55731;45.456;11.064;2022-10-28T01:46:27;17.27;60.90
68746;SHT31;55731;45.456;11.064;2022-10-28T01:49:09;17.29;60.96
68746;SHT31;55731;45.456;11.064;2022-10-28T01:51:50;17.27;60.99
68746;SHT31;55731;45.456;11.064;2022-10-28T01:54:28;17.26;60.98
68746;SHT31;55731;45.456;11.064;2022-10-28T01:57:05;17.25;61.10
68746;SHT31;55731;45.456;11.064;2022-10-28T01:59:40;17.24;61.12
68746;SHT31;55731;45.456;11.064;2022-10-28T02:02:17;17.23;61.00
68746;SHT31;55731;45.456;11.064;2022-10-28T02:04:50;17.23;60.77
68746;SHT31;55731;45.456;11.064;2022-10-28T02:07:47;17.22;60.62
68746;SHT31;55731;45.456;11.064;2022-10-28T02:10:27;17.21;60.85
68746;SHT31;55731;45.456;11.064;2022-10-28T02:13:10;17.20;61.09
68746;SHT31;55731;45.456;11.064;2022-10-28T02:15:48;17.21;61.12
68746;SHT31;55731;45.456;11.064;2022-10-28T02:18:36;17.20;61.33
68746;SHT31;55731;45.456;11.064;2022-10-28T02:21:23;17.19;61.51
68746;SHT31;55731;45.456;11.064;2022-10-28T02:24:13;17.16;61.62
68746;SHT31;55731;45.456;11.064;2022-10-28T02:26:53;17.14;61.65
68746;SHT31;55731;45.456;11.064;2022-10-28T02:29:36;17.13;61.38
68746;SHT31;55731;45.456;11.064;2022-10-28T02:32:16;17.11;61.15
68746;SHT31;55731;45.456;11.064;2022-10-28T02:34:54;17.12;60.94
68746;SHT31;55731;45.456;11.064;2022-10-28T02:37:32;17.09;61.02
68746;SHT31;55731;45.456;11.064;2022-10-28T02:40:11;17.09;61.09
68746;SHT31;55731;45.456;11.064;2022-10-28T02:42:53;17.09;61.09
68746;SHT31;55731;45.456;11.064;2022-10-28T02:45:33;17.06;61.17
68746;SHT31;55731;45.456;11.064;2022-10-28T02:48:11;17.03;61.16
68746;SHT31;55731;45.456;11.064;2022-10-28T02:50:54;16.98;61.57
68746;SHT31;55731;45.456;11.064;2022-10-28T02:53:37;16.96;61.74
68746;SHT31;55731;45.456;11.064;2022-10-28T02:56:24;16.94;62.23
68746;SHT31;55731;45.456;11.064;2022-10-28T02:59:01;16.89;62.87
68746;SHT31;55731;45.456;11.064;2022-10-28T03:01:39;16.83;63.58
68746;SHT31;55731;45.456;11.064;2022-10-28T03:04:11;16.76;64.04
68746;SHT31;55731;45.456;11.064;2022-10-28T03:06:44;16.72;64.50
68746;SHT31;55731;45.456;11.064;2022-10-28T03:09:17;16.67;65.26
68746;SHT31;55731;45.456;11.064;2022-10-28T03:11:50;16.62;65.86
68746;SHT31;55731;45.456;11.064;2022-10-28T03:14:24;16.54;66.24
68746;SHT31;55731;45.456;11.064;2022-10-28T03:16:56;16.50;67.24
68746;SHT31;55731;45.456;11.064;2022-10-28T03:19:30;16.49;67.37
68746;SHT31;55731;45.456;11.064;2022-10-28T03:22:03;16.46;67.25
68746;SHT31;55731;45.456;11.064;2022-10-28T03:24:36;16.45;67.40
68746;SHT31;55731;45.456;11.064;2022-10-28T03:27:09;16.43;67.49
68746;SHT31;55731;45.456;11.064;2022-10-28T03:29:42;16.44;67.61
68746;SHT31;55731;45.456;11.064;2022-10-28T03:32:14;16.44;67.63
68746;SHT31;55731;45.456;11.064;2022-10-28T03:34:47;16.45;67.42
68746;SHT31;55731;45.456;11.064;2022-10-28T03:37:20;16.45;67.12
68746;SHT31;55731;45.456;11.064;2022-10-28T03:39:53;16.45;66.72
68746;SHT31;55731;45.456;11.064;2022-10-28T03:42:27;16.47;66.23
68746;SHT31;55731;45.456;11.064;2022-10-28T03:45:03;16.47;65.35
68746;SHT31;55731;45.456;11.064;2022-10-28T03:47:38;16.46;65.25
68746;SHT31;55731;45.456;11.064;2022-10-28T03:50:12;16.45;65.12
68746;SHT31;55731;45.456;11.064;2022-10-28T03:52:45;16.44;64.71
68746;SHT31;55731;45.456;11.064;2022-10-28T03:55:17;16.44;64.57
68746;SHT31;55731;45.456;11.064;2022-10-28T03:57:52;16.45;64.37
68746;SHT31;55731;45.456;11.064;2022-10-28T04:00:28;16.41;64.82
68746;SHT31;55731;45.456;11.064;2022-10-28T04:03:00;16.32;65.30
68746;SHT31;55731;45.456;11.064;2022-10-28T04:05:33;16.23;65.89
68746;SHT31;55731;45.456;11.064;2022-10-28T04:08:07;16.19;66.04
68746;SHT31;55731;45.456;11.064;2022-10-28T04:10:40;16.20;66.04
68746;SHT31;55731;45.456;11.064;2022-10-28T04:13:14;16.24;65.59
68746;SHT31;55731;45.456;11.064;2022-10-28T04:15:47;16.29;64.76
68746;SHT31;55731;45.456;11.064;2022-10-28T04:18:20;16.32;64.48
68746;SHT31;55731;45.456;11.064;2022-10-28T04:20:53;16.31;64.50
68746;SHT31;55731;45.456;11.064;2022-10-28T04:23:26;16.30;64.43
68746;SHT31;55731;45.456;11.064;2022-10-28T04:25:59;16.31;64.04
68746;SHT31;55731;45.456;11.064;2022-10-28T04:28:33;16.33;63.86
68746;SHT31;55731;45.456;11.064;2022-10-28T04:31:05;16.36;63.60
68746;SHT31;55731;45.456;11.064;2022-10-28T04:33:39;16.37;63.37
68746;SHT31;55731;45.456;11.064;2022-10-28T04:36:11;16.37;63.28
68746;SHT31;55731;45.456;11.064;2022-10-28T04:38:44;16.36;63.30
68746;SHT31;55731;45.456;11.064;2022-10-28T04:41:19;16.34;63.15
68746;SHT31;55731;45.456;11.064;2022-10-28T04:43:52;16.31;63.80
68746;SHT31;55731;45.456;11.064;2022-10-28T04:46:24;16.19;63.98
68746;SHT31;55731;45.456;11.064;2022-10-28T04:48:58;16.08;64.29
68746;SHT31;55731;45.456;11.064;2022-10-28T04:51:31;16.05;64.60
68746;SHT31;55731;45.456;11.064;2022-10-28T04:54:04;16.02;64.92
68746;SHT31;55731;45.456;11.064;2022-10-28T04:56:38;16.01;65.18
68746;SHT31;55731;45.456;11.064;2022-10-28T04:59:11;15.98;65.37
68746;SHT31;55731;45.456;11.064;2022-10-28T05:01:45;15.91;65.48
68746;SHT31;55731;45.456;11.064;2022-10-28T05:04:18;15.85;65.91
68746;SHT31;55731;45.456;11.064;2022-10-28T05:06:50;15.83;66.13
68746;SHT31;55731;45.456;11.064;2022-10-28T05:09:24;15.81;66.48
68746;SHT31;55731;45.456;11.064;2022-10-28T05:11:58;15.77;67.04
68746;SHT31;55731;45.456;11.064;2022-10-28T05:14:30;15.74;67.53
68746;SHT31;55731;45.456;11.064;2022-10-28T05:17:04;15.67;67.80
68746;SHT31;55731;45.456;11.064;2022-10-28T05:19:38;15.65;68.16
68746;SHT31;55731;45.456;11.064;2022-10-28T05:22:11;15.64;68.20
68746;SHT31;55731;45.456;11.064;2022-10-28T05:24:43;15.65;68.17
68746;SHT31;55731;45.456;11.064;2022-10-28T05:27:16;15.68;68.07
68746;SHT31;55731;45.456;11.064;2022-10-28T05:29:50;15.68;67.92
68746;SHT31;55731;45.456;11.064;2022-10-28T05:32:23;15.70;67.55
68746;SHT31;55731;45.456;11.064;2022-10-28T05:34:55;15.77;67.20
68746;SHT31;55731;45.456;11.064;2022-10-28T05:37:28;15.82;66.94
68746;SHT31;55731;45.456;11.064;2022-10-28T05:40:01;15.86;66.50
68746;SHT31;55731;45.456;11.064;2022-10-28T05:42:40;15.88;66.21
68746;SHT31;55731;45.456;11.064;2022-10-28T05:45:12;15.94;65.64
68746;SHT31;55731;45.456;11.064;2022-10-28T05:47:46;15.96;66.10
68746;SHT31;55731;45.456;11.064;2022-10-28T05:50:19;15.89;66.32
68746;SHT31;55731;45.456;11.064;2022-10-28T05:52:52;15.82;66.41
68746;SHT31;55731;45.456;11.064;2022-10-28T05:55:25;15.77;66.77
68746;SHT31;55731;45.456;11.064;2022-10-28T05:57:59;15.69;66.79
68746;SHT31;55731;45.456;11.064;2022-10-28T06:00:32;15.55;67.01
68746;SHT31;55731;45.456;11.064;2022-10-28T06:03:05;15.48;67.46
68746;SHT31;55731;45.456;11.064;2022-10-28T06:05:41;15.47;67.76
68746;SHT31;55731;45.456;11.064;2022-10-28T06:08:15;15.47;67.78
68746;SHT31;55731;45.456;11.064;2022-10-28T06:10:52;15.50;67.64
68746;SHT31;55731;45.456;11.064;2022-10-28T06:13:25;15.52;67.73
68746;SHT31;55731;45.456;11.064;2022-10-28T06:15:58;15.55;67.70
68746;SHT31;55731;45.456;11.064;2022-10-28T06:18:31;15.62;67.57
68746;SHT31;55731;45.456;11.064;2022-10-28T06:21:04;15.68;67.43
68746;SHT31;55731;45.456;11.064;2022-10-28T06:23:38;15.73;67.33
68746;SHT31;55731;45.456;11.064;2022-10-28T06:26:10;15.81;67.24
68746;SHT31;55731;45.456;11.064;2022-10-28T06:28:43;15.88;67.15
68746;SHT31;55731;45.456;11.064;2022-10-28T06:31:18;15.94;67.12
68746;SHT31;55731;45.456;11.064;2022-10-28T06:33:51;15.98;67.20
68746;SHT31;55731;45.456;11.064;2022-10-28T06:36:26;16.01;67.11
68746;SHT31;55731;45.456;11.064;2022-10-28T06:38:59;16.07;67.08
68746;SHT31;55731;45.456;11.064;2022-10-28T06:41:34;16.16;67.04
68746;SHT31;55731;45.456;11.064;2022-10-28T06:44:06;16.25;66.96
68746;SHT31;55731;45.456;11.064;2022-10-28T06:46:39;16.33;67.04
68746;SHT31;55731;45.456;11.064;2022-10-28T06:49:13;16.40;67.10
68746;SHT31;55731;45.456;11.064;2022-10-28T06:51:45;16.45;67.10
68746;SHT31;55731;45.456;11.064;2022-10-28T06:54:18;16.51;67.07
68746;SHT31;55731;45.456;11.064;2022-10-28T06:56:52;16.55;67.00
68746;SHT31;55731;45.456;11.064;2022-10-28T06:59:25;16.58;66.93
68746;SHT31;55731;45.456;11.064;2022-10-28T07:01:58;16.62;66.87
68746;SHT31;55731;45.456;11.064;2022-10-28T07:04:31;16.66;66.67
68746;SHT31;55731;45.456;11.064;2022-10-28T07:07:04;16.71;66.46
68746;SHT31;55731;45.456;11.064;2022-10-28T07:09:37;16.73;66.84
68746;SHT31;55731;45.456;11.064;2022-10-28T07:12:11;16.70;66.86
68746;SHT31;55731;45.456;11.064;2022-10-28T07:14:45;16.64;67.08
68746;SHT31;55731;45.456;11.064;2022-10-28T07:17:17;16.63;67.65
68746;SHT31;55731;45.456;11.064;2022-10-28T07:19:50;16.64;67.82
68746;SHT31;55731;45.456;11.064;2022-10-28T07:22:23;16.70;67.59
68746;SHT31;55731;45.456;11.064;2022-10-28T07:24:56;16.79;67.41
68746;SHT31;55731;45.456;11.064;2022-10-28T07:27:28;16.88;67.36
68746;SHT31;55731;45.456;11.064;2022-10-28T07:30:02;16.99;67.06
68746;SHT31;55731;45.456;11.064;2022-10-28T07:32:41;17.12;66.81
68746;SHT31;55731;45.456;11.064;2022-10-28T07:35:15;17.26;66.65
68746;SHT31;55731;45.456;11.064;2022-10-28T07:37:49;17.38;66.23
68746;SHT31;55731;45.456;11.064;2022-10-28T07:40:22;17.51;65.64
68746;SHT31;55731;45.456;11.064;2022-10-28T07:42:56;17.62;65.16
68746;SHT31;55731;45.456;11.064;2022-10-28T07:45:28;17.74;64.66
68746;SHT31;55731;45.456;11.064;2022-10-28T07:48:01;17.86;64.30
68746;SHT31;55731;45.456;11.064;2022-10-28T07:50:36;17.98;64.18
68746;SHT31;55731;45.456;11.064;2022-10-28T07:53:11;18.07;64.40
68746;SHT31;55731;45.456;11.064;2022-10-28T07:55:44;18.15;64.44
68746;SHT31;55731;45.456;11.064;2022-10-28T07:58:25;18.18;64.35
68746;SHT31;55731;45.456;11.064;2022-10-28T08:01:01;18.24;64.15
68746;SHT31;55731;45.456;11.064;2022-10-28T08:03:36;18.32;64.15
68746;SHT31;55731;45.456;11.064;2022-10-28T08:06:10;18.42;64.12
68746;SHT31;55731;45.456;11.064;2022-10-28T08:08:45;18.56;63.72
68746;SHT31;55731;45.456;11.064;2022-10-28T08:11:23;18.74;63.17
68746;SHT31;55731;45.456;11.064;2022-10-28T08:13:58;18.90;62.85
68746;SHT31;55731;45.456;11.064;2022-10-28T08:16:31;19.02;62.81
68746;SHT31;55731;45.456;11.064;2022-10-28T08:19:04;19.12;62.77
68746;SHT31;55731;45.456;11.064;2022-10-28T08:21:38;19.20;62.39
68746;SHT31;55731;45.456;11.064;2022-10-28T08:24:10;19.26;61.89
68746;SHT31;55731;45.456;11.064;2022-10-28T08:26:43;19.34;61.93
68746;SHT31;55731;45.456;11.064;2022-10-28T08:29:16;19.42;61.79
68746;SHT31;55731;45.456;11.064;2022-10-28T08:31:55;19.49;60.98
68746;SHT31;55731;45.456;11.064;2022-10-28T08:34:28;19.53;60.66
68746;SHT31;55731;45.456;11.064;2022-10-28T08:37:04;19.61;61.23
68746;SHT31;55731;45.456;11.064;2022-10-28T08:39:37;19.68;60.95
68746;SHT31;55731;45.456;11.064;2022-10-28T08:42:17;19.73;60.99
68746;SHT31;55731;45.456;11.064;2022-10-28T08:45:07;19.82;60.83
68746;SHT31;55731;45.456;11.064;2022-10-28T08:48:07;19.88;60.55
68746;SHT31;55731;45.456;11.064;2022-10-28T08:50:55;19.90;60.31
68746;SHT31;55731;45.456;11.064;2022-10-28T08:53:38;19.93;60.35
68746;SHT31;55731;45.456;11.064;2022-10-28T08:56:26;19.96;60.51
68746;SHT31;55731;45.456;11.064;2022-10-28T08:59:02;20.01;60.19
68746;SHT31;55731;45.456;11.064;2022-10-28T09:01:40;20.07;60.37
68746;SHT31;55731;45.456;11.064;2022-10-28T09:04:21;20.16;60.45
68746;SHT31;55731;45.456;11.064;2022-10-28T09:07:07;20.27;60.18
68746;SHT31;55731;45.456;11.064;2022-10-28T09:09:45;20.35;60.06
68746;SHT31;55731;45.456;11.064;2022-10-28T09:12:23;20.45;60.03
68746;SHT31;55731;45.456;11.064;2022-10-28T09:15:14;20.56;59.79
68746;SHT31;55731;45.456;11.064;2022-10-28T09:18:07;20.67;59.21
68746;SHT31;55731;45.456;11.064;2022-10-28T09:20:49;20.78;58.80
68746;SHT31;55731;45.456;11.064;2022-10-28T09:23:26;20.87;58.69
68746;SHT31;55731;45.456;11.064;2022-10-28T09:26:07;20.95;58.49
68746;SHT31;55731;45.456;11.064;2022-10-28T09:28:53;21.03;58.37
68746;SHT31;55731;45.456;11.064;2022-10-28T09:31:43;21.12;57.97
68746;SHT31;55731;45.456;11.064;2022-10-28T09:34:23;21.19;57.79
68746;SHT31;55731;45.456;11.064;2022-10-28T09:37:10;21.24;57.76
68746;SHT31;55731;45.456;11.064;2022-10-28T09:39:50;21.33;57.24
68746;SHT31;55731;45.456;11.064;2022-10-28T09:42:28;21.44;56.87
68746;SHT31;55731;45.456;11.064;2022-10-28T09:45:11;21.54;56.85
68746;SHT31;55731;45.456;11.064;2022-10-28T09:47:50;21.61;56.81
68746;SHT31;55731;45.456;11.064;2022-10-28T09:50:30;21.67;56.36
68746;SHT31;55731;45.456;11.064;2022-10-28T09:53:05;21.77;56.59
68746;SHT31;55731;45.456;11.064;2022-10-28T09:55:53;21.85;56.37
68746;SHT31;55731;45.456;11.064;2022-10-28T09:58:26;21.92;55.75
68746;SHT31;55731;45.456;11.064;2022-10-28T10:01:00;21.97;55.48
68746;SHT31;55731;45.456;11.064;2022-10-28T10:03:33;22.02;55.27
68746;SHT31;55731;45.456;11.064;2022-10-28T10:06:08;22.05;55.17
68746;SHT31;55731;45.456;11.064;2022-10-28T10:08:47;22.09;55.28
68746;SHT31;55731;45.456;11.064;2022-10-28T10:11:23;22.16;54.92
68746;SHT31;55731;45.456;11.064;2022-10-28T10:14:03;22.23;54.71
68746;SHT31;55731;45.456;11.064;2022-10-28T10:16:41;22.28;54.83
68746;SHT31;55731;45.456;11.064;2022-10-28T10:19:18;22.33;55.41
68746;SHT31;55731;45.456;11.064;2022-10-28T10:21:52;22.37;55.69
68746;SHT31;55731;45.456;11.064;2022-10-28T10:24:27;22.41;56.04
68746;SHT31;55731;45.456;11.064;2022-10-28T10:27:02;22.48;55.74
68746;SHT31;55731;45.456;11.064;2022-10-28T10:29:50;22.53;55.82
68746;SHT31;55731;45.456;11.064;2022-10-28T10:32:25;22.57;55.84
68746;SHT31;55731;45.456;11.064;2022-10-28T10:35:04;22.60;55.88
68746;SHT31;55731;45.456;11.064;2022-10-28T10:37:55;22.66;55.81
68746;SHT31;55731;45.456;11.064;2022-10-28T10:40:29;22.71;55.24
68746;SHT31;55731;45.456;11.064;2022-10-28T10:43:18;22.77;55.09
68746;SHT31;55731;45.456;11.064;2022-10-28T10:46:04;22.86;54.96
68746;SHT31;55731;45.456;11.064;2022-10-28T10:48:43;22.91;54.66
68746;SHT31;55731;45.456;11.064;2022-10-28T10:51:33;22.94;54.16
68746;SHT31;55731;45.456;11.064;2022-10-28T10:54:12;22.99;54.30
68746;SHT31;55731;45.456;11.064;2022-10-28T10:56:45;23.04;54.25
68746;SHT31;55731;45.456;11.064;2022-10-28T10:59:21;23.07;54.11
68746;SHT31;55731;45.456;11.064;2022-10-28T11:01:58;23.11;53.84
68746;SHT31;55731;45.456;11.064;2022-10-28T11:04:32;23.17;53.61
68746;SHT31;55731;45.456;11.064;2022-10-28T11:07:11;23.22;53.60
68746;SHT31;55731;45.456;11.064;2022-10-28T11:09:47;23.25;53.45
68746;SHT31;55731;45.456;11.064;2022-10-28T11:12:25;23.27;53.09
68746;SHT31;55731;45.456;11.064;2022-10-28T11:15:02;23.30;53.06
68746;SHT31;55731;45.456;11.064;2022-10-28T11:17:58;23.34;52.81
68746;SHT31;55731;45.456;11.064;2022-10-28T11:20:46;23.41;52.51
68746;SHT31;55731;45.456;11.064;2022-10-28T11:23:33;23.44;52.27
68746;SHT31;55731;45.456;11.064;2022-10-28T11:26:19;23.48;52.64
68746;SHT31;55731;45.456;11.064;2022-10-28T11:28:58;23.49;52.74
68746;SHT31;55731;45.456;11.064;2022-10-28T11:31:47;23.55;52.67
68746;SHT31;55731;45.456;11.064;2022-10-28T11:34:41;23.58;52.31
68746;SHT31;55731;45.456;11.064;2022-10-28T11:37:36;23.63;52.17
68746;SHT31;55731;45.456;11.064;2022-10-28T11:40:31;23.71;51.95
68746;SHT31;55731;45.456;11.064;2022-10-28T11:43:20;23.76;51.88
68746;SHT31;55731;45.456;11.064;2022-10-28T11:46:06;23.80;51.47
68746;SHT31;55731;45.456;11.064;2022-10-28T11:49:05;23.83;51.61
68746;SHT31;55731;45.456;11.064;2022-10-28T11:52:13;23.91;51.06
68746;SHT31;55731;45.456;11.064;2022-10-28T11:54:59;23.98;51.00
68746;SHT31;55731;45.456;11.064;2022-10-28T11:57:47;24.03;50.56
68746;SHT31;55731;45.456;11.064;2022-10-28T12:00:40;24.08;50.61
68746;SHT31;55731;45.456;11.064;2022-10-28T12:03:32;24.12;50.58
68746;SHT31;55731;45.456;11.064;2022-10-28T12:06:50;24.17;50.27
68746;SHT31;55731;45.456;11.064;2022-10-28T12:09:39;24.22;49.35
68746;SHT31;55731;45.456;11.064;2022-10-28T12:12:35;24.26;48.59
68746;SHT31;55731;45.456;11.064;2022-10-28T12:15:19;24.26;48.77
68746;SHT31;55731;45.456;11.064;2022-10-28T12:18:02;24.30;48.85
68746;SHT31;55731;45.456;11.064;2022-10-28T12:20:51;24.38;48.45
68746;SHT31;55731;45.456;11.064;2022-10-28T12:23:32;24.47;47.78
68746;SHT31;55731;45.456;11.064;2022-10-28T12:26:11;24.54;47.35
68746;SHT31;55731;45.456;11.064;2022-10-28T12:28:47;24.60;47.52
68746;SHT31;55731;45.456;11.064;2022-10-28T12:31:27;24.63;47.19
68746;SHT31;55731;45.456;11.064;2022-10-28T12:34:12;24.66;46.98
68746;SHT31;55731;45.456;11.064;2022-10-28T12:36:54;24.72;46.71
68746;SHT31;55731;45.456;11.064;2022-10-28T12:39:30;24.78;46.73
68746;SHT31;55731;45.456;11.064;2022-10-28T12:42:13;24.76;46.55
68746;SHT31;55731;45.456;11.064;2022-10-28T12:44:54;24.71;46.58
68746;SHT31;55731;45.456;11.064;2022-10-28T12:47:32;24.67;46.79
68746;SHT31;55731;45.456;11.064;2022-10-28T12:50:15;24.60;46.42
68746;SHT31;55731;45.456;11.064;2022-10-28T12:53:11;24.55;46.12
68746;SHT31;55731;45.456;11.064;2022-10-28T12:56:05;24.47;45.94
68746;SHT31;55731;45.456;11.064;2022-10-28T12:58:50;24.42;45.77
68746;SHT31;55731;45.456;11.064;2022-10-28T13:01:32;24.35;45.78
68746;SHT31;55731;45.456;11.064;2022-10-28T13:04:07;24.31;46.17
68746;SHT31;55731;45.456;11.064;2022-10-28T13:06:49;24.31;46.37
68746;SHT31;55731;45.456;11.064;2022-10-28T13:19:47;24.31;46.16
68746;SHT31;55731;45.456;11.064;2022-10-28T13:22:59;24.29;46.42
68746;SHT31;55731;45.456;11.064;2022-10-28T13:25:51;24.28;46.05
68746;SHT31;55731;45.456;11.064;2022-10-28T13:28:42;24.23;46.01
68746;SHT31;55731;45.456;11.064;2022-10-28T13:31:17;24.20;45.92
68746;SHT31;55731;45.456;11.064;2022-10-28T13:33:51;24.17;46.19
68746;SHT31;55731;45.456;11.064;2022-10-28T13:36:28;24.12;46.12
68746;SHT31;55731;45.456;11.064;2022-10-28T13:39:05;24.08;46.26
68746;SHT31;55731;45.456;11.064;2022-10-28T13:51:45;23.86;46.11
68746;SHT31;55731;45.456;11.064;2022-10-28T13:54:26;23.83;46.28
68746;SHT31;55731;45.456;11.064;2022-10-28T13:57:22;23.78;46.42
68746;SHT31;55731;45.456;11.064;2022-10-28T14:00:00;23.72;46.51
68746;SHT31;55731;45.456;11.064;2022-10-28T14:02:56;23.69;46.40
68746;SHT31;55731;45.456;11.064;2022-10-28T14:08:26;23.61;47.10
68746;SHT31;55731;45.456;11.064;2022-10-28T14:11:07;23.57;47.63
68746;SHT31;55731;45.456;11.064;2022-10-28T14:13:50;23.54;47.81
68746;SHT31;55731;45.456;11.064;2022-10-28T14:16:29;23.54;47.84
68746;SHT31;55731;45.456;11.064;2022-10-28T14:19:05;23.56;47.53
68746;SHT31;55731;45.456;11.064;2022-10-28T14:21:50;23.58;47.50
68746;SHT31;55731;45.456;11.064;2022-10-28T14:24:31;23.61;47.53
68746;SHT31;55731;45.456;11.064;2022-10-28T14:30:13;23.64;47.49
68746;SHT31;55731;45.456;11.064;2022-10-28T14:36:09;23.62;47.59
68746;SHT31;55731;45.456;11.064;2022-10-28T14:39:02;23.60;47.60
68746;SHT31;55731;45.456;11.064;2022-10-28T14:42:06;23.58;47.74
68746;SHT31;55731;45.456;11.064;2022-10-28T14:45:04;23.56;47.90
68746;SHT31;55731;45.456;11.064;2022-10-28T14:47:55;23.55;48.17
68746;SHT31;55731;45.456;11.064;2022-10-28T14:50:56;23.53;48.36
68746;SHT31;55731;45.456;11.064;2022-10-28T14:53:32;23.50;48.61
68746;SHT31;55731;45.456;11.064;2022-10-28T14:56:09;23.49;48.62
68746;SHT31;55731;45.456;11.064;2022-10-28T14:58:49;23.49;48.64
68746;SHT31;55731;45.456;11.064;2022-10-28T15:01:25;23.47;48.88
68746;SHT31;55731;45.456;11.064;2022-10-28T15:04:15;23.44;48.95
68746;SHT31;55731;45.456;11.064;2022-10-28T15:06:50;23.42;49.05
68746;SHT31;55731;45.456;11.064;2022-10-28T15:09:24;23.39;49.17
68746;SHT31;55731;45.456;11.064;2022-10-28T15:12:01;23.34;49.46
68746;SHT31;55731;45.456;11.064;2022-10-28T15:14:41;23.31;49.72
68746;SHT31;55731;45.456;11.064;2022-10-28T15:17:19;23.28;49.95
68746;SHT31;55731;45.456;11.064;2022-10-28T15:19:54;23.25;50.19
68746;SHT31;55731;45.456;11.064;2022-10-28T15:22:30;23.21;50.35
68746;SHT31;55731;45.456;11.064;2022-10-28T15:25:04;23.17;50.46
68746;SHT31;55731;45.456;11.064;2022-10-28T15:27:42;23.12;50.67
68746;SHT31;55731;45.456;11.064;2022-10-28T15:30:20;23.07;51.08
68746;SHT31;55731;45.456;11.064;2022-10-28T15:32:54;23.02;51.66
68746;SHT31;55731;45.456;11.064;2022-10-28T15:36:06;22.94;52.78
68746;SHT31;55731;45.456;11.064;2022-10-28T15:38:45;22.83;53.34
68746;SHT31;55731;45.456;11.064;2022-10-28T15:41:37;22.72;54.10
68746;SHT31;55731;45.456;11.064;2022-10-28T15:44:22;22.61;54.55
68746;SHT31;55731;45.456;11.064;2022-10-28T15:47:03;22.50;54.87
68746;SHT31;55731;45.456;11.064;2022-10-28T15:50:01;22.38;55.26
68746;SHT31;55731;45.456;11.064;2022-10-28T15:52:55;22.26;55.68
68746;SHT31;55731;45.456;11.064;2022-10-28T15:56:18;22.13;56.12
68746;SHT31;55731;45.456;11.064;2022-10-28T15:59:00;22.01;56.56
68746;SHT31;55731;45.456;11.064;2022-10-28T16:01:48;21.90;56.96
68746;SHT31;55731;45.456;11.064;2022-10-28T16:04:41;21.78;57.34
68746;SHT31;55731;45.456;11.064;2022-10-28T16:07:14;21.66;57.85
68746;SHT31;55731;45.456;11.064;2022-10-28T16:09:48;21.55;58.19
68746;SHT31;55731;45.456;11.064;2022-10-28T16:12:21;21.46;58.60
68746;SHT31;55731;45.456;11.064;2022-10-28T16:14:56;21.39;58.91
68746;SHT31;55731;45.456;11.064;2022-10-28T16:17:32;21.29;59.39
68746;SHT31;55731;45.456;11.064;2022-10-28T16:20:11;21.17;59.80
68746;SHT31;55731;45.456;11.064;2022-10-28T16:22:46;21.09;59.99
68746;SHT31;55731;45.456;11.064;2022-10-28T16:25:19;21.00;60.27
68746;SHT31;55731;45.456;11.064;2022-10-28T16:27:52;20.88;60.63
68746;SHT31;55731;45.456;11.064;2022-10-28T16:30:25;20.77;60.84
68746;SHT31;55731;45.456;11.064;2022-10-28T16:32:59;20.68;61.09
68746;SHT31;55731;45.456;11.064;2022-10-28T16:35:32;20.61;61.29
68746;SHT31;55731;45.456;11.064;2022-10-28T16:38:07;20.55;61.49
68746;SHT31;55731;45.456;11.064;2022-10-28T16:40:41;20.47;61.72
68746;SHT31;55731;45.456;11.064;2022-10-28T16:43:19;20.38;61.89
68746;SHT31;55731;45.456;11.064;2022-10-28T16:45:53;20.31;62.05
68746;SHT31;55731;45.456;11.064;2022-10-28T16:48:28;20.24;62.14
68746;SHT31;55731;45.456;11.064;2022-10-28T16:51:02;20.20;62.20
68746;SHT31;55731;45.456;11.064;2022-10-28T16:53:42;20.16;62.21
68746;SHT31;55731;45.456;11.064;2022-10-28T16:56:16;20.10;62.29
68746;SHT31;55731;45.456;11.064;2022-10-28T16:58:49;20.07;62.38
68746;SHT31;55731;45.456;11.064;2022-10-28T17:01:23;20.03;62.38
68746;SHT31;55731;45.456;11.064;2022-10-28T17:03:56;20.01;62.31
68746;SHT31;55731;45.456;11.064;2022-10-28T17:06:29;19.98;62.36